Time;durP1;ratioP1;P1;durP2;ratioP2;P2;SDS_P1;SDS_P2;PMS_P1;PMS_P2;Temp;Humidity;BMP_temperature;BMP_pressure;BME280_temperature;BME280_humidity;BME280_pressure;Samples;Min_cycle;Max_cycle;Signal;HPM_P1;HPM_P2
2022/08/05 00:01:21;;;;;;;19.02;7.55;;;;;;;;;;5032721;28;20148;-88
2022/08/05 00:03:47;;;;;;;16.45;6.68;;;;;;;;;;4966599;28;20027;-87
2022/08/05 00:06:13;;;;;;;13.85;6.22;;;;;;;;;;5022629;28;20403;-87
2022/08/05 00:08:39;;;;;;;16.48;6.45;;;;;;;;;;4966487;28;20030;-87
2022/08/05 00:11:07;;;;;;;14.15;6.35;;;;;;;;;;4968077;28;20039;-86
2022/08/05 00:13:34;;;;;;;18.92;6.50;;;;;;;;;;4968530;28;20030;-89
2022/08/05 00:16:00;;;;;;;14.48;6.18;;;;;;;;;;4967941;28;20031;-87
2022/08/05 00:18:26;;;;;;;16.02;5.85;;;;;;;;;;5036465;28;20042;-87
2022/08/05 00:20:52;;;;;;;17.42;6.13;;;;;;;;;;4966178;28;20533;-87
2022/08/05 00:23:18;;;;;;;14.80;6.68;;;;;;;;;;4969024;28;20030;-87
2022/08/05 00:25:45;;;;;;;15.30;5.75;;;;;;;;;;5064362;28;20188;-87
2022/08/05 00:28:11;;;;;;;16.05;5.60;;;;;;;;;;4968960;28;20046;-87
2022/08/05 00:30:37;;;;;;;13.23;5.70;;;;;;;;;;4968841;28;20046;-87
2022/08/05 00:33:03;;;;;;;16.00;6.47;;;;;;;;;;5035143;28;20042;-87
2022/08/05 00:35:29;;;;;;;11.65;6.38;;;;;;;;;;5035139;28;20045;-87
2022/08/05 00:37:55;;;;;;;14.05;6.85;;;;;;;;;;4968792;28;20121;-87
2022/08/05 00:40:22;;;;;;;14.73;5.90;;;;;;;;;;5060488;28;20656;-87
2022/08/05 00:42:48;;;;;;;10.75;5.43;;;;;;;;;;5034725;28;20049;-87
2022/08/05 00:45:14;;;;;;;10.65;5.45;;;;;;;;;;5017752;28;20944;-88
2022/08/05 00:47:40;;;;;;;13.82;5.72;;;;;;;;;;5067778;28;20042;-87
2022/08/05 00:50:06;;;;;;;13.50;5.38;;;;;;;;;;5035113;28;20062;-87
2022/08/05 00:52:32;;;;;;;12.40;5.70;;;;;;;;;;5033477;28;20031;-87
2022/08/05 00:54:58;;;;;;;15.25;5.68;;;;;;;;;;5065721;28;20500;-88
2022/08/05 00:57:24;;;;;;;10.15;5.07;;;;;;;;;;5035072;28;20088;-87
2022/08/05 00:59:50;;;;;;;13.43;4.95;;;;;;;;;;4966125;28;20476;-86
2022/08/05 01:02:16;;;;;;;14.52;5.30;;;;;;;;;;4966239;28;20095;-87
2022/08/05 01:04:42;;;;;;;16.77;4.63;;;;;;;;;;4966758;28;20940;-88
2022/08/05 01:07:08;;;;;;;11.77;5.28;;;;;;;;;;4967967;28;20063;-88
2022/08/05 01:09:34;;;;;;;11.90;4.72;;;;;;;;;;4952242;28;20055;-87
2022/08/05 01:12:03;;;;;;;9.80;4.43;;;;;;;;;;4954012;28;20045;-88
2022/08/05 01:14:47;;;;;;;9.30;5.00;;;;;;;;;;4974283;28;20436;-87
2022/08/05 01:17:14;;;;;;;17.05;4.63;;;;;;;;;;5050332;28;20076;-87
2022/08/05 01:19:40;;;;;;;9.38;4.60;;;;;;;;;;4953850;28;20118;-87
2022/08/05 01:22:38;;;;;;;10.48;4.40;;;;;;;;;;4968955;28;20122;-88
2022/08/05 01:25:24;;;;;;;7.40;3.88;;;;;;;;;;4962329;28;20133;-88
2022/08/05 01:27:50;;;;;;;10.48;4.30;;;;;;;;;;4953816;28;20066;-87
2022/08/05 01:30:17;;;;;;;14.38;5.50;;;;;;;;;;4963988;28;20042;-87
2022/08/05 01:32:44;;;;;;;13.77;4.13;;;;;;;;;;5035658;28;20046;-87
2022/08/05 01:35:14;;;;;;;15.15;4.57;;;;;;;;;;4966661;28;20442;-87
2022/08/05 01:37:50;;;;;;;11.52;4.93;;;;;;;;;;4965141;28;20057;-88
2022/08/05 01:40:17;;;;;;;14.68;5.45;;;;;;;;;;4951345;28;20038;-87
2022/08/05 01:42:44;;;;;;;11.88;5.43;;;;;;;;;;5011193;28;20023;-89
2022/08/05 01:45:10;;;;;;;16.05;6.00;;;;;;;;;;4963398;28;20027;-87
2022/08/05 01:47:36;;;;;;;14.75;5.70;;;;;;;;;;4966326;28;20039;-88
2022/08/05 01:50:04;;;;;;;13.85;5.80;;;;;;;;;;4952755;28;20042;-88
2022/08/05 01:52:33;;;;;;;13.63;5.20;;;;;;;;;;4947002;28;20034;-88
2022/08/05 01:55:01;;;;;;;12.23;5.35;;;;;;;;;;4966586;28;20029;-87
2022/08/05 01:57:30;;;;;;;15.82;5.25;;;;;;;;;;4959452;28;20042;-87
2022/08/05 01:59:58;;;;;;;13.48;4.65;;;;;;;;;;4964705;28;20031;-87
2022/08/05 02:02:26;;;;;;;12.82;4.95;;;;;;;;;;4973727;28;20063;-87
2022/08/05 02:04:54;;;;;;;13.07;5.03;;;;;;;;;;4964012;28;20042;-88
2022/08/05 02:07:20;;;;;;;10.80;4.53;;;;;;;;;;4954383;28;20027;-87
2022/08/05 02:09:46;;;;;;;10.23;4.97;;;;;;;;;;4966650;28;20043;-87
2022/08/05 02:12:19;;;;;;;12.82;4.63;;;;;;;;;;4966138;28;20039;-88
2022/08/05 02:14:50;;;;;;;10.73;4.82;;;;;;;;;;4966782;28;20045;-87
2022/08/05 02:17:23;;;;;;;15.63;5.07;;;;;;;;;;4960470;28;20063;-87
2022/08/05 02:19:52;;;;;;;11.32;4.47;;;;;;;;;;4966954;28;20039;-87
2022/08/05 02:22:26;;;;;;;15.23;4.78;;;;;;;;;;4994028;28;20041;-88
2022/08/05 02:24:55;;;;;;;14.60;4.80;;;;;;;;;;4949827;28;20054;-87
2022/08/05 02:27:21;;;;;;;11.05;4.53;;;;;;;;;;5031439;28;20536;-87
2022/08/05 02:29:47;;;;;;;14.38;5.00;;;;;;;;;;4966321;28;20066;-87
2022/08/05 02:32:16;;;;;;;14.80;4.90;;;;;;;;;;4950679;28;20419;-88
2022/08/05 02:34:43;;;;;;;14.27;5.13;;;;;;;;;;4969189;28;20395;-87
2022/08/05 02:37:12;;;;;;;13.32;4.57;;;;;;;;;;4953846;28;20051;-88
2022/08/05 02:39:39;;;;;;;12.88;4.70;;;;;;;;;;4971069;28;20398;-87
2022/08/05 02:42:05;;;;;;;9.10;4.60;;;;;;;;;;4968209;28;20396;-87
2022/08/05 02:44:35;;;;;;;11.13;4.70;;;;;;;;;;4953273;28;20050;-87
2022/08/05 02:47:02;;;;;;;14.93;5.63;;;;;;;;;;4953545;28;20173;-87
2022/08/05 02:49:31;;;;;;;12.85;4.40;;;;;;;;;;4953619;28;20095;-88
2022/08/05 02:51:57;;;;;;;9.13;5.18;;;;;;;;;;4971352;28;20035;-88
2022/08/05 02:54:23;;;;;;;12.20;5.50;;;;;;;;;;4964528;28;20027;-87
2022/08/05 02:56:49;;;;;;;16.48;5.78;;;;;;;;;;5018766;28;20031;-87
2022/08/05 02:59:36;;;;;;;12.27;4.65;;;;;;;;;;4948075;28;20036;-87
2022/08/05 03:02:03;;;;;;;13.07;4.43;;;;;;;;;;5036524;28;20420;-86
2022/08/05 03:04:29;;;;;;;10.20;4.75;;;;;;;;;;4937309;28;20042;-88
2022/08/05 03:06:55;;;;;;;11.00;4.63;;;;;;;;;;4953657;28;20589;-87
2022/08/05 03:09:21;;;;;;;15.75;4.68;;;;;;;;;;4970037;28;20043;-88
2022/08/05 03:11:47;;;;;;;11.02;4.05;;;;;;;;;;4974951;28;20039;-87
2022/08/05 03:14:13;;;;;;;12.13;4.15;;;;;;;;;;4968020;28;20138;-87
2022/08/05 03:16:39;;;;;;;16.40;5.25;;;;;;;;;;4969803;28;20106;-87
2022/08/05 03:19:05;;;;;;;11.52;4.43;;;;;;;;;;4970654;28;20023;-87
2022/08/05 03:21:32;;;;;;;14.65;4.30;;;;;;;;;;4950077;28;20039;-88
2022/08/05 03:23:58;;;;;;;14.00;4.45;;;;;;;;;;4963437;28;20533;-87
2022/08/05 03:26:24;;;;;;;10.57;4.35;;;;;;;;;;4953904;28;20108;-87
2022/08/05 03:28:50;;;;;;;8.65;4.50;;;;;;;;;;4953033;28;20467;-87
2022/08/05 03:31:16;;;;;;;8.10;4.40;;;;;;;;;;4970745;28;20027;-87
2022/08/05 03:33:42;;;;;;;10.00;5.00;;;;;;;;;;4974285;28;20091;-87
2022/08/05 03:36:09;;;;;;;7.32;4.38;;;;;;;;;;4955793;28;20035;-88
2022/08/05 03:38:40;;;;;;;13.52;5.28;;;;;;;;;;4975343;28;20023;-88
2022/08/05 03:41:06;;;;;;;13.88;4.40;;;;;;;;;;4964797;28;20600;-88
2022/08/05 03:43:32;;;;;;;8.85;3.70;;;;;;;;;;4950664;28;20035;-87
2022/08/05 03:45:58;;;;;;;11.18;4.57;;;;;;;;;;4970913;28;20038;-87
2022/08/05 03:48:25;;;;;;;10.63;4.43;;;;;;;;;;4955274;28;20165;-87
2022/08/05 03:51:11;;;;;;;14.70;4.60;;;;;;;;;;4952931;28;20045;-87
2022/08/05 03:53:56;;;;;;;12.50;4.28;;;;;;;;;;4968433;28;20441;-88
2022/08/05 03:56:26;;;;;;;6.80;3.95;;;;;;;;;;4971030;28;20031;-87
2022/08/05 03:58:52;;;;;;;13.43;6.70;;;;;;;;;;4961925;28;20066;-88
2022/08/05 04:01:20;;;;;;;9.38;3.72;;;;;;;;;;4968974;28;20765;-87
2022/08/05 04:03:48;;;;;;;9.52;4.00;;;;;;;;;;4951996;28;20188;-87
2022/08/05 04:06:15;;;;;;;8.95;4.05;;;;;;;;;;4971149;28;20080;-87
2022/08/05 04:08:42;;;;;;;8.77;3.78;;;;;;;;;;5036268;28;20038;-87
2022/08/05 04:11:09;;;;;;;11.18;3.70;;;;;;;;;;4970818;28;20023;-87
2022/08/05 04:13:38;;;;;;;6.50;3.30;;;;;;;;;;4967042;28;20043;-87
2022/08/05 04:16:04;;;;;;;7.93;3.30;;;;;;;;;;4970169;28;20031;-87
2022/08/05 04:18:31;;;;;;;12.07;3.47;;;;;;;;;;4967250;28;20381;-87
2022/08/05 04:20:58;;;;;;;8.60;2.90;;;;;;;;;;4968902;28;20026;-87
2022/08/05 04:23:25;;;;;;;10.57;3.10;;;;;;;;;;4964028;28;20039;-87
2022/08/05 04:25:51;;;;;;;8.30;2.83;;;;;;;;;;4977896;28;20101;-86
2022/08/05 04:28:18;;;;;;;7.32;2.85;;;;;;;;;;4968743;28;20027;-87
2022/08/05 04:30:44;;;;;;;7.95;2.90;;;;;;;;;;4951058;28;20023;-88
2022/08/05 04:33:10;;;;;;;8.15;3.20;;;;;;;;;;4951801;28;20356;-89
2022/08/05 04:35:36;;;;;;;7.63;3.05;;;;;;;;;;4952107;28;20035;-87
2022/08/05 04:38:02;;;;;;;5.85;3.17;;;;;;;;;;4968748;28;20035;-87
2022/08/05 04:40:28;;;;;;;8.25;3.40;;;;;;;;;;4957856;28;20033;-87
2022/08/05 04:42:54;;;;;;;11.23;3.50;;;;;;;;;;4969239;28;20039;-87
2022/08/05 04:45:24;;;;;;;12.45;3.30;;;;;;;;;;4952965;28;20079;-87
2022/08/05 04:47:50;;;;;;;9.65;3.28;;;;;;;;;;4967688;28;20035;-87
2022/08/05 04:50:18;;;;;;;10.88;3.60;;;;;;;;;;5033792;28;20483;-88
2022/08/05 04:52:44;;;;;;;7.20;3.42;;;;;;;;;;4967419;28;20465;-88
2022/08/05 04:55:10;;;;;;;9.98;3.50;;;;;;;;;;4967522;28;20129;-89
2022/08/05 04:57:36;;;;;;;9.65;3.55;;;;;;;;;;4968524;28;20118;-88
2022/08/05 05:00:05;;;;;;;10.20;4.10;;;;;;;;;;4968333;28;20031;-88
2022/08/05 05:02:31;;;;;;;10.10;3.60;;;;;;;;;;4966909;28;20157;-88
2022/08/05 05:04:57;;;;;;;17.15;4.93;;;;;;;;;;5035217;28;20727;-88
2022/08/05 05:07:23;;;;;;;12.63;4.10;;;;;;;;;;4967322;28;20092;-87
2022/08/05 05:09:50;;;;;;;14.40;4.20;;;;;;;;;;5032779;28;20026;-87
2022/08/05 05:12:16;;;;;;;10.73;4.20;;;;;;;;;;4947108;28;20098;-87
2022/08/05 05:14:42;;;;;;;7.97;4.00;;;;;;;;;;4967192;28;20418;-87
2022/08/05 05:17:08;;;;;;;9.70;4.28;;;;;;;;;;4983209;28;20059;-86
2022/08/05 05:19:34;;;;;;;10.38;3.85;;;;;;;;;;4971402;28;20087;-87
2022/08/05 05:22:00;;;;;;;10.02;3.47;;;;;;;;;;4970653;28;20039;-87
2022/08/05 05:24:26;;;;;;;10.50;3.58;;;;;;;;;;4964245;28;20057;-87
2022/08/05 05:26:52;;;;;;;11.05;3.20;;;;;;;;;;4963028;28;20060;-87
2022/08/05 05:29:18;;;;;;;10.48;2.75;;;;;;;;;;4968184;28;20054;-88
2022/08/05 05:31:44;;;;;;;8.27;2.45;;;;;;;;;;4964710;28;20039;-87
2022/08/05 05:34:10;;;;;;;8.13;2.63;;;;;;;;;;4952191;28;20117;-87
2022/08/05 05:36:36;;;;;;;6.05;2.22;;;;;;;;;;4967456;28;20642;-88
2022/08/05 05:39:02;;;;;;;12.80;2.83;;;;;;;;;;4962699;28;20023;-88
2022/08/05 05:41:28;;;;;;;7.70;2.47;;;;;;;;;;4968626;28;20106;-87
2022/08/05 05:43:54;;;;;;;6.57;2.05;;;;;;;;;;4965895;28;20098;-88
2022/08/05 05:46:20;;;;;;;6.70;1.85;;;;;;;;;;4949845;28;20488;-87
2022/08/05 05:48:46;;;;;;;7.40;1.80;;;;;;;;;;4960083;28;20023;-88
2022/08/05 05:51:18;;;;;;;11.02;1.92;;;;;;;;;;4968464;28;20047;-76
2022/08/05 05:53:44;;;;;;;4.00;2.00;;;;;;;;;;4967367;28;20353;-76
2022/08/05 05:56:10;;;;;;;3.85;1.58;;;;;;;;;;4964560;28;20493;-77
2022/08/05 05:58:36;;;;;;;11.73;1.88;;;;;;;;;;4973327;28;20077;-77
2022/08/05 06:01:02;;;;;;;6.85;1.52;;;;;;;;;;4971619;28;20077;-77
2022/08/05 06:03:28;;;;;;;5.18;1.83;;;;;;;;;;5032184;28;20039;-77
2022/08/05 06:05:54;;;;;;;9.75;2.03;;;;;;;;;;4968154;28;20039;-76
2022/08/05 06:08:20;;;;;;;4.55;1.80;;;;;;;;;;4966912;28;20757;-76
2022/08/05 06:10:46;;;;;;;9.20;1.70;;;;;;;;;;4969598;28;20046;-88
2022/08/05 06:13:12;;;;;;;17.52;2.78;;;;;;;;;;5034116;28;20047;-78
2022/08/05 06:15:38;;;;;;;6.93;1.98;;;;;;;;;;4979798;28;20023;-76
2022/08/05 06:18:04;;;;;;;5.55;1.60;;;;;;;;;;4962815;28;20023;-77
2022/08/05 06:20:30;;;;;;;4.28;1.15;;;;;;;;;;4975424;28;20062;-76
2022/08/05 06:22:58;;;;;;;4.57;1.60;;;;;;;;;;4970323;28;20187;-77
2022/08/05 06:25:24;;;;;;;3.40;1.30;;;;;;;;;;4967682;28;20022;-76
2022/08/05 06:27:50;;;;;;;4.97;1.23;;;;;;;;;;5031448;28;20050;-76
2022/08/05 06:30:16;;;;;;;6.55;1.60;;;;;;;;;;4964504;28;20027;-77
2022/08/05 06:32:42;;;;;;;5.38;1.55;;;;;;;;;;4955478;28;20038;-77
2022/08/05 06:35:09;;;;;;;3.38;1.35;;;;;;;;;;5051089;28;20513;-76
2022/08/05 06:37:35;;;;;;;3.97;1.20;;;;;;;;;;4967429;28;20042;-77
2022/08/05 06:40:00;;;;;;;3.60;1.10;;;;;;;;;;4968296;28;20034;-77
2022/08/05 06:42:28;;;;;;;3.78;1.30;;;;;;;;;;5021357;28;20748;-87
2022/08/05 06:44:54;;;;;;;4.53;1.20;;;;;;;;;;4970317;28;20089;-87
2022/08/05 06:47:20;;;;;;;4.03;1.27;;;;;;;;;;4968641;28;20035;-88
2022/08/05 06:49:46;;;;;;;3.63;1.00;;;;;;;;;;5034469;28;20085;-86
2022/08/05 06:52:12;;;;;;;4.53;1.20;;;;;;;;;;4981425;28;20127;-87
2022/08/05 06:54:39;;;;;;;5.47;1.10;;;;;;;;;;4973647;28;20066;-88
2022/08/05 06:57:05;;;;;;;3.15;1.00;;;;;;;;;;4964656;28;20089;-87
2022/08/05 06:59:31;;;;;;;4.07;1.00;;;;;;;;;;5028942;28;20027;-87
2022/08/05 07:01:57;;;;;;;5.80;1.17;;;;;;;;;;5028645;28;20054;-77
2022/08/05 07:04:23;;;;;;;2.88;1.02;;;;;;;;;;4963421;28;20100;-77
2022/08/05 07:06:49;;;;;;;5.10;1.25;;;;;;;;;;4965035;28;20043;-77
2022/08/05 07:09:15;;;;;;;4.20;0.88;;;;;;;;;;4963858;28;20035;-75
2022/08/05 07:11:41;;;;;;;4.43;1.10;;;;;;;;;;5032153;28;20050;-77
2022/08/05 07:16:58;;;;;;;2.63;0.98;;;;;;;;;;4968093;28;20084;-89
2022/08/05 07:19:24;;;;;;;3.05;1.00;;;;;;;;;;5030410;28;20029;-87
2022/08/05 07:21:50;;;;;;;2.90;1.00;;;;;;;;;;4966392;28;20047;-88
2022/08/05 07:24:17;;;;;;;5.28;0.95;;;;;;;;;;4966664;28;20070;-88
2022/08/05 07:26:43;;;;;;;5.95;1.27;;;;;;;;;;4968473;28;20460;-88
2022/08/05 07:29:09;;;;;;;3.58;0.95;;;;;;;;;;4965342;28;20089;-88
2022/08/05 07:31:36;;;;;;;4.60;0.90;;;;;;;;;;5014020;28;20039;-88
2022/08/05 07:34:02;;;;;;;3.72;1.60;;;;;;;;;;4966550;28;20027;-86
2022/08/05 07:36:28;;;;;;;2.63;0.80;;;;;;;;;;5033713;28;20479;-89
2022/08/05 07:38:55;;;;;;;3.65;1.00;;;;;;;;;;4968751;28;20027;-87
2022/08/05 07:41:21;;;;;;;5.30;1.17;;;;;;;;;;4970370;28;20030;-89
2022/08/05 07:43:48;;;;;;;4.78;1.13;;;;;;;;;;4967381;28;20117;-87
2022/08/05 07:46:14;;;;;;;9.15;1.38;;;;;;;;;;4965369;28;20019;-88
2022/08/05 07:48:40;;;;;;;15.50;1.58;;;;;;;;;;4968923;28;20027;-87
2022/08/05 07:51:06;;;;;;;4.13;0.90;;;;;;;;;;5012592;28;20073;-86
2022/08/05 07:53:32;;;;;;;4.30;0.70;;;;;;;;;;4966826;28;20121;-86
2022/08/05 07:55:58;;;;;;;2.25;0.70;;;;;;;;;;4967624;28;20058;-88
2022/08/05 07:58:24;;;;;;;4.07;0.70;;;;;;;;;;5030847;28;20058;-86
2022/08/05 08:00:50;;;;;;;2.85;1.02;;;;;;;;;;4964910;28;20043;-87
2022/08/05 08:03:16;;;;;;;4.65;0.95;;;;;;;;;;4967061;28;20050;-87
2022/08/05 08:05:43;;;;;;;5.68;0.93;;;;;;;;;;4951024;28;20054;-86
2022/08/05 08:08:12;;;;;;;3.90;0.80;;;;;;;;;;5032178;28;20046;-87
2022/08/05 08:10:39;;;;;;;6.13;1.00;;;;;;;;;;4951818;28;20034;-87
2022/08/05 08:13:05;;;;;;;10.48;0.98;;;;;;;;;;4953708;28;20495;-88
2022/08/05 08:15:31;;;;;;;2.15;0.80;;;;;;;;;;4951157;28;20038;-86
2022/08/05 08:17:57;;;;;;;4.78;0.90;;;;;;;;;;5030558;28;20255;-88
2022/08/05 08:20:24;;;;;;;4.40;0.80;;;;;;;;;;4971311;28;20110;-87
2022/08/05 08:22:51;;;;;;;4.78;0.90;;;;;;;;;;4963918;28;20042;-87
2022/08/05 08:25:18;;;;;;;2.58;0.90;;;;;;;;;;4968370;28;20031;-86
2022/08/05 08:27:44;;;;;;;5.68;0.80;;;;;;;;;;4952795;28;20147;-86
2022/08/05 08:30:10;;;;;;;3.13;0.75;;;;;;;;;;4944972;28;20039;-86
2022/08/05 08:32:36;;;;;;;4.55;0.98;;;;;;;;;;4965593;28;20038;-87
2022/08/05 08:35:03;;;;;;;5.70;0.98;;;;;;;;;;4967177;28;21615;-88
2022/08/05 08:37:29;;;;;;;5.20;0.90;;;;;;;;;;4937781;28;20039;-85
2022/08/05 08:39:55;;;;;;;4.20;0.90;;;;;;;;;;4970235;28;20027;-87
2022/08/05 08:42:21;;;;;;;2.30;0.70;;;;;;;;;;4973119;28;20188;-88
2022/08/05 08:44:47;;;;;;;6.93;1.00;;;;;;;;;;4964111;28;20035;-87
2022/08/05 08:47:14;;;;;;;3.42;0.90;;;;;;;;;;4952230;28;20384;-87
2022/08/05 08:49:43;;;;;;;7.95;0.95;;;;;;;;;;4949212;28;20067;-87
2022/08/05 08:52:13;;;;;;;8.68;1.25;;;;;;;;;;5030245;28;20079;-87
2022/08/05 08:54:39;;;;;;;6.70;0.70;;;;;;;;;;4964013;28;20104;-88
2022/08/05 08:57:06;;;;;;;7.45;1.05;;;;;;;;;;4961514;28;20134;-85
2022/08/05 08:59:33;;;;;;;7.78;1.00;;;;;;;;;;4968449;28;20418;-85
2022/08/05 09:02:01;;;;;;;5.25;1.00;;;;;;;;;;4966521;28;20049;-90
2022/08/05 09:04:27;;;;;;;8.02;1.15;;;;;;;;;;4963615;28;20042;-88
2022/08/05 09:06:53;;;;;;;6.68;0.98;;;;;;;;;;4953384;28;20854;-86
2022/08/05 09:09:19;;;;;;;5.05;0.80;;;;;;;;;;4966503;28;20118;-87
2022/08/05 09:11:46;;;;;;;4.70;0.75;;;;;;;;;;4966074;28;20126;-86
2022/08/05 09:14:12;;;;;;;3.67;0.98;;;;;;;;;;4966687;28;20106;-87
2022/08/05 09:16:38;;;;;;;5.45;0.82;;;;;;;;;;4976199;28;20045;-87
2022/08/05 09:19:07;;;;;;;7.10;0.90;;;;;;;;;;4971638;28;20399;-87
2022/08/05 09:21:33;;;;;;;6.95;1.45;;;;;;;;;;4967706;28;20081;-87
2022/08/05 09:24:09;;;;;;;3.47;0.73;;;;;;;;;;4962946;28;20027;-86
2022/08/05 09:26:35;;;;;;;5.25;0.65;;;;;;;;;;4949263;28;20015;-85
2022/08/05 09:29:04;;;;;;;4.47;0.98;;;;;;;;;;5025403;28;20027;-85
2022/08/05 09:31:31;;;;;;;4.38;0.80;;;;;;;;;;5030170;28;20065;-85
2022/08/05 09:33:58;;;;;;;5.82;1.17;;;;;;;;;;4966060;28;20039;-86
2022/08/05 09:36:36;;;;;;;6.88;1.02;;;;;;;;;;4964296;28;20023;-86
2022/08/05 09:39:04;;;;;;;4.60;0.98;;;;;;;;;;4962625;28;20041;-86
2022/08/05 09:41:30;;;;;;;3.55;1.45;;;;;;;;;;4960218;28;20118;-86
2022/08/05 09:43:56;;;;;;;5.60;0.80;;;;;;;;;;4949520;28;20109;-86
2022/08/05 09:46:25;;;;;;;2.47;0.60;;;;;;;;;;4966502;28;20054;-86
2022/08/05 09:48:52;;;;;;;3.97;0.63;;;;;;;;;;4947098;28;20028;-86
2022/08/05 09:51:30;;;;;;;4.63;1.02;;;;;;;;;;4948165;28;20034;-87
2022/08/05 09:53:56;;;;;;;6.32;0.80;;;;;;;;;;4965612;28;20115;-86
2022/08/05 09:56:26;;;;;;;3.90;0.95;;;;;;;;;;4965585;28;20290;-87
2022/08/05 09:58:56;;;;;;;3.60;0.67;;;;;;;;;;4944260;28;20334;-86
2022/08/05 10:01:22;;;;;;;5.55;0.70;;;;;;;;;;4950108;28;20590;-87
2022/08/05 10:03:59;;;;;;;4.47;0.70;;;;;;;;;;4946801;28;20057;-87
2022/08/05 10:06:26;;;;;;;2.47;0.70;;;;;;;;;;4962391;28;20062;-77
2022/08/05 10:08:52;;;;;;;2.00;0.60;;;;;;;;;;4964787;28;20023;-78
2022/08/05 10:11:18;;;;;;;0.90;0.40;;;;;;;;;;4948737;28;20035;-77
2022/08/05 10:13:44;;;;;;;3.50;0.52;;;;;;;;;;4962107;28;20039;-77
2022/08/05 10:16:32;;;;;;;2.50;0.63;;;;;;;;;;4960603;28;20170;-77
2022/08/05 10:18:59;;;;;;;1.70;0.50;;;;;;;;;;4964804;28;20026;-76
2022/08/05 10:21:26;;;;;;;2.55;0.40;;;;;;;;;;5013239;28;20638;-77
2022/08/05 10:23:52;;;;;;;2.28;0.60;;;;;;;;;;4964856;28;20050;-77
2022/08/05 10:26:18;;;;;;;2.63;0.50;;;;;;;;;;4964204;28;20084;-76
2022/08/05 10:28:46;;;;;;;1.60;0.52;;;;;;;;;;4939997;28;20031;-75
2022/08/05 10:31:13;;;;;;;1.65;0.57;;;;;;;;;;4963065;28;20039;-75
2022/08/05 10:33:39;;;;;;;1.52;0.50;;;;;;;;;;4964832;28;20368;-77
2022/08/05 10:36:05;;;;;;;2.45;0.95;;;;;;;;;;4965289;28;20084;-76
2022/08/05 10:38:32;;;;;;;3.33;0.60;;;;;;;;;;4950536;28;20031;-76
2022/08/05 10:41:07;;;;;;;4.88;0.68;;;;;;;;;;4962737;28;20027;-77
2022/08/05 10:43:33;;;;;;;5.35;0.80;;;;;;;;;;4960244;28;20038;-87
2022/08/05 10:46:00;;;;;;;1.88;0.60;;;;;;;;;;4965071;28;20057;-76
2022/08/05 10:48:30;;;;;;;2.67;0.70;;;;;;;;;;4947853;28;20039;-76
2022/08/05 10:50:58;;;;;;;2.75;0.65;;;;;;;;;;4961357;28;20117;-77
2022/08/05 10:53:35;;;;;;;6.35;1.13;;;;;;;;;;4964254;28;20093;-77
2022/08/05 10:56:03;;;;;;;8.48;0.95;;;;;;;;;;4966572;28;20518;-76
2022/08/05 10:58:29;;;;;;;1.73;0.40;;;;;;;;;;4966665;28;20031;-76
2022/08/05 11:00:55;;;;;;;3.83;0.68;;;;;;;;;;4970865;28;20108;-76
2022/08/05 11:03:21;;;;;;;2.72;0.65;;;;;;;;;;4965236;28;20088;-76
2022/08/05 11:06:06;;;;;;;2.78;0.55;;;;;;;;;;4967460;28;20038;-76
2022/08/05 11:08:32;;;;;;;1.75;0.40;;;;;;;;;;4965913;28;20020;-77
2022/08/05 11:11:18;;;;;;;3.80;0.68;;;;;;;;;;5035886;28;20480;-76
2022/08/05 11:13:44;;;;;;;1.00;0.40;;;;;;;;;;4969652;28;20057;-84
2022/08/05 11:16:20;;;;;;;3.55;0.63;;;;;;;;;;4967281;28;20039;-84
2022/08/05 11:18:46;;;;;;;1.20;0.45;;;;;;;;;;4965243;28;20031;-83
2022/08/05 11:21:30;;;;;;;1.73;0.60;;;;;;;;;;4966928;28;20031;-83
2022/08/05 11:23:56;;;;;;;2.53;1.00;;;;;;;;;;4964848;28;20023;-84
2022/08/05 11:26:24;;;;;;;3.13;0.52;;;;;;;;;;4968040;28;20721;-85
2022/08/05 11:28:51;;;;;;;2.63;0.60;;;;;;;;;;4968164;28;20450;-84
2022/08/05 11:31:17;;;;;;;5.35;0.82;;;;;;;;;;4966346;28;20415;-84
2022/08/05 11:33:45;;;;;;;4.53;1.27;;;;;;;;;;4967635;28;20023;-76
2022/08/05 11:36:12;;;;;;;3.45;0.82;;;;;;;;;;4967525;28;20035;-76
2022/08/05 11:38:38;;;;;;;6.40;1.25;;;;;;;;;;4951011;28;20506;-76
2022/08/05 11:41:05;;;;;;;4.90;0.90;;;;;;;;;;4966689;28;20053;-76
2022/08/05 11:43:32;;;;;;;3.78;0.73;;;;;;;;;;4950316;28;20085;-77
2022/08/05 11:45:58;;;;;;;4.05;0.75;;;;;;;;;;4950877;28;20124;-76
2022/08/05 11:48:25;;;;;;;3.55;0.90;;;;;;;;;;4950849;28;20396;-77
2022/08/05 11:50:52;;;;;;;7.55;1.15;;;;;;;;;;4966864;28;20471;-77
2022/08/05 11:53:19;;;;;;;5.85;1.10;;;;;;;;;;4966747;28;20031;-76
2022/08/05 11:55:52;;;;;;;3.22;1.00;;;;;;;;;;4967645;28;20092;-76
2022/08/05 11:58:33;;;;;;;10.40;1.63;;;;;;;;;;4966910;28;20066;-79
2022/08/05 12:01:07;;;;;;;6.90;1.00;;;;;;;;;;4966788;28;20380;-77
2022/08/05 12:03:53;;;;;;;7.32;1.20;;;;;;;;;;4945840;28;20034;-77
2022/08/05 12:06:24;;;;;;;8.85;1.30;;;;;;;;;;4949487;28;20031;-79
2022/08/05 12:08:54;;;;;;;5.28;2.03;;;;;;;;;;4964282;28;20103;-77
2022/08/05 12:11:21;;;;;;;11.05;3.40;;;;;;;;;;4952138;28;20054;-78
2022/08/05 12:14:00;;;;;;;10.20;3.50;;;;;;;;;;4950685;28;20077;-77
2022/08/05 12:16:27;;;;;;;8.55;2.95;;;;;;;;;;4970619;28;20384;-77
2022/08/05 12:18:54;;;;;;;5.90;3.03;;;;;;;;;;4937450;28;20046;-77
2022/08/05 12:21:20;;;;;;;99.22;11.82;;;;;;;;;;4962812;28;20110;-78
2022/08/05 12:23:52;;;;;;;18.20;2.97;;;;;;;;;;4967798;28;20113;-77
2022/08/05 12:26:19;;;;;;;133.65;15.35;;;;;;;;;;4968798;28;20030;-79
2022/08/05 12:28:45;;;;;;;9.63;1.25;;;;;;;;;;4949242;28;20433;-77
2022/08/05 12:31:11;;;;;;;34.60;4.50;;;;;;;;;;4965887;28;20061;-76
2022/08/05 12:33:37;;;;;;;107.93;12.80;;;;;;;;;;4967636;28;20151;-77
2022/08/05 12:36:05;;;;;;;296.58;36.10;;;;;;;;;;4967044;28;20117;-78
2022/08/05 12:38:31;;;;;;;3.22;1.20;;;;;;;;;;4965345;28;20050;-77
2022/08/05 12:40:57;;;;;;;47.30;7.35;;;;;;;;;;4963722;28;20524;-77
2022/08/05 12:43:23;;;;;;;14.95;1.83;;;;;;;;;;4966537;28;20193;-77
2022/08/05 12:45:55;;;;;;;3.00;0.70;;;;;;;;;;5030961;28;20039;-77
2022/08/05 12:48:22;;;;;;;9.23;1.40;;;;;;;;;;4966086;28;20038;-76
2022/08/05 12:51:08;;;;;;;4.55;1.00;;;;;;;;;;4967198;28;20040;-85
2022/08/05 12:53:39;;;;;;;5.10;0.70;;;;;;;;;;4960102;28;20357;-86
2022/08/05 12:56:15;;;;;;;3.33;0.80;;;;;;;;;;4950801;28;20499;-85
2022/08/05 12:58:41;;;;;;;4.15;0.90;;;;;;;;;;4965127;28;20039;-86
2022/08/05 13:01:07;;;;;;;4.43;0.70;;;;;;;;;;4970449;28;20051;-86
2022/08/05 13:03:36;;;;;;;6.18;0.63;;;;;;;;;;4964252;28;20074;-77
2022/08/05 13:06:06;;;;;;;1.80;0.70;;;;;;;;;;4964819;28;20031;-77
2022/08/05 13:08:32;;;;;;;3.50;0.70;;;;;;;;;;4951804;28;20027;-77
2022/08/05 13:11:01;;;;;;;1.95;0.65;;;;;;;;;;4965551;28;20432;-78
2022/08/05 13:13:28;;;;;;;4.70;0.57;;;;;;;;;;4948796;28;20038;-77
2022/08/05 13:15:54;;;;;;;2.97;0.88;;;;;;;;;;4965472;28;20043;-76
2022/08/05 13:18:20;;;;;;;4.18;0.80;;;;;;;;;;4962819;28;20088;-76
2022/08/05 13:20:46;;;;;;;5.65;0.60;;;;;;;;;;4963382;28;20026;-77
2022/08/05 13:23:12;;;;;;;1.58;0.50;;;;;;;;;;4949321;28;20565;-77
2022/08/05 13:25:38;;;;;;;3.50;0.60;;;;;;;;;;4964822;28;20125;-76
2022/08/05 13:28:05;;;;;;;4.55;0.50;;;;;;;;;;4965161;28;21736;-77
2022/08/05 13:30:31;;;;;;;6.35;0.73;;;;;;;;;;4958593;28;20027;-77
2022/08/05 13:32:57;;;;;;;2.08;0.60;;;;;;;;;;4961591;28;20050;-76
2022/08/05 13:35:23;;;;;;;3.15;0.90;;;;;;;;;;4967296;28;20041;-77
2022/08/05 13:37:49;;;;;;;2.63;0.75;;;;;;;;;;4969485;28;20703;-77
2022/08/05 13:40:17;;;;;;;1.27;0.50;;;;;;;;;;4976059;28;20432;-77
2022/08/05 13:42:44;;;;;;;4.65;0.57;;;;;;;;;;5029757;28;20031;-77
2022/08/05 13:45:11;;;;;;;1.75;0.60;;;;;;;;;;5029574;28;20045;-76
2022/08/05 13:47:38;;;;;;;5.75;0.60;;;;;;;;;;4950280;28;20084;-76
2022/08/05 13:50:04;;;;;;;2.45;1.02;;;;;;;;;;4973032;28;20062;-76
2022/08/05 13:52:30;;;;;;;3.67;0.70;;;;;;;;;;4966977;28;20395;-77
2022/08/05 13:54:56;;;;;;;2.35;0.70;;;;;;;;;;4963011;28;20035;-77
2022/08/05 13:57:23;;;;;;;1.70;0.60;;;;;;;;;;4972881;28;20114;-77
2022/08/05 13:59:49;;;;;;;3.42;0.80;;;;;;;;;;4966675;28;20035;-77
2022/08/05 14:02:15;;;;;;;2.92;0.60;;;;;;;;;;4964547;28;20046;-76
2022/08/05 14:07:34;;;;;;;3.95;0.70;;;;;;;;;;4964280;28;20038;-76
2022/08/05 14:10:00;;;;;;;2.85;0.70;;;;;;;;;;4943453;28;20395;-76
2022/08/05 14:12:26;;;;;;;5.53;0.85;;;;;;;;;;4946031;28;20046;-77
2022/08/05 14:14:52;;;;;;;4.63;0.90;;;;;;;;;;4962902;28;20023;-76
2022/08/05 14:17:18;;;;;;;3.40;0.57;;;;;;;;;;4964352;28;20483;-76
2022/08/05 14:19:45;;;;;;;7.90;0.73;;;;;;;;;;4946406;28;20035;-75
2022/08/05 14:22:12;;;;;;;2.40;0.60;;;;;;;;;;4965757;28;20043;-75
2022/08/05 14:24:38;;;;;;;4.47;0.68;;;;;;;;;;4964095;28;20518;-75
2022/08/05 14:27:05;;;;;;;6.60;0.80;;;;;;;;;;4961621;28;20065;-76
2022/08/05 14:29:31;;;;;;;5.22;0.90;;;;;;;;;;4962296;28;20041;-75
2022/08/05 14:31:57;;;;;;;9.23;1.33;;;;;;;;;;4964248;28;20070;-76
2022/08/05 14:34:23;;;;;;;5.97;0.98;;;;;;;;;;4967700;28;20148;-76
2022/08/05 14:36:49;;;;;;;5.20;1.00;;;;;;;;;;4949263;28;20035;-76
2022/08/05 14:39:15;;;;;;;9.45;1.30;;;;;;;;;;4953761;28;20446;-75
2022/08/05 14:41:41;;;;;;;8.25;1.23;;;;;;;;;;4964498;28;20027;-76
2022/08/05 14:44:07;;;;;;;6.75;1.00;;;;;;;;;;4936796;28;20035;-76
2022/08/05 14:46:33;;;;;;;6.22;1.45;;;;;;;;;;4964574;28;20057;-76